Time;durP1;ratioP1;P1;durP2;ratioP2;P2;SDS_P1;SDS_P2;PMS_P1;PMS_P2;Temp;Humidity;BMP_temperature;BMP_pressure;BME280_temperature;BME280_humidity;BME280_pressure;Samples;Min_cycle;Max_cycle;Signal;HPM_P1;HPM_P2
2022/08/14 00:00:49;;;;;;;8.65;6.40;;;21.70;96.90;;;;;;4996879;28;20042;-73
2022/08/14 00:03:30;;;;;;;7.43;5.80;;;21.60;97.00;;;;;;4996756;28;20048;-73
2022/08/14 00:05:58;;;;;;;8.02;5.75;;;21.60;97.60;;;;;;4996368;28;20053;-72
2022/08/14 00:08:25;;;;;;;6.60;6.00;;;21.60;97.30;;;;;;4996818;28;20129;-73
2022/08/14 00:10:51;;;;;;;7.93;5.60;;;21.50;97.30;;;;;;4996810;28;20096;-74
2022/08/14 00:13:19;;;;;;;6.13;5.50;;;21.50;97.60;;;;;;4996877;28;20050;-73
2022/08/14 00:15:48;;;;;;;7.15;6.05;;;21.50;97.80;;;;;;4996707;28;20038;-73
2022/08/14 00:18:17;;;;;;;5.88;5.38;;;21.50;98.10;;;;;;4996815;28;20100;-73
2022/08/14 00:20:44;;;;;;;5.82;4.85;;;21.40;98.20;;;;;;4996590;28;20545;-73
2022/08/14 00:23:12;;;;;;;6.93;5.78;;;21.40;98.40;;;;;;4995588;28;20137;-73
2022/08/14 00:25:39;;;;;;;7.47;6.78;;;21.40;98.50;;;;;;4996520;28;20042;-73
2022/08/14 00:28:08;;;;;;;7.45;6.25;;;21.30;98.50;;;;;;4996555;28;20047;-73
2022/08/14 00:30:35;;;;;;;6.63;5.78;;;21.20;98.50;;;;;;4996518;28;20062;-73
2022/08/14 00:33:01;;;;;;;8.23;6.70;;;21.30;99.10;;;;;;4996488;28;20516;-73
2022/08/14 00:35:27;;;;;;;9.23;7.05;;;21.20;99.20;;;;;;4996390;28;20096;-73
2022/08/14 00:37:53;;;;;;;8.15;5.68;;;21.20;99.20;;;;;;4996196;28;20053;-73
2022/08/14 00:40:20;;;;;;;11.07;6.85;;;21.20;99.80;;;;;;4996500;28;20047;-73
2022/08/14 00:42:46;;;;;;;10.00;6.38;;;21.20;99.90;;;;;;4979117;28;20368;-73
2022/08/14 00:45:14;;;;;;;7.13;6.43;;;21.20;99.90;;;;;;4996157;28;20046;-73
2022/08/14 00:47:41;;;;;;;9.13;6.40;;;21.10;99.90;;;;;;4996699;28;20109;-73
2022/08/14 00:50:09;;;;;;;8.98;7.35;;;21.10;99.90;;;;;;4996427;28;20061;-73
2022/08/14 00:52:35;;;;;;;9.15;7.88;;;21.10;99.90;;;;;;4978220;28;20113;-73
2022/08/14 00:55:02;;;;;;;9.13;6.30;;;21.00;99.90;;;;;;4996027;28;20121;-73
2022/08/14 00:57:33;;;;;;;8.23;6.35;;;21.00;99.90;;;;;;4995870;28;20050;-73
2022/08/14 00:59:59;;;;;;;11.20;7.07;;;21.00;99.90;;;;;;4996324;28;20050;-73
2022/08/14 01:02:26;;;;;;;8.93;6.90;;;21.00;99.90;;;;;;4978903;28;20096;-73
2022/08/14 01:04:57;;;;;;;9.10;6.85;;;21.00;99.90;;;;;;4979140;28;20068;-73
2022/08/14 01:07:27;;;;;;;8.10;6.55;;;21.00;99.90;;;;;;4978993;28;20085;-73
2022/08/14 01:10:00;;;;;;;10.88;7.00;;;20.90;99.90;;;;;;4995780;28;20082;-73
2022/08/14 01:12:27;;;;;;;9.90;8.48;;;21.00;99.90;;;;;;4996013;28;20202;-73
2022/08/14 01:14:54;;;;;;;8.70;6.80;;;20.90;99.90;;;;;;4995670;28;20389;-74
2022/08/14 01:21:02;;;;;;;10.18;8.73;;;20.90;99.90;;;;;;4995926;28;20043;-74
2022/08/14 01:22:54;;;;;;;9.27;6.82;;;20.80;99.90;;;;;;4996340;28;20101;-74
2022/08/14 01:25:21;;;;;;;12.63;7.97;;;20.80;99.90;;;;;;4995398;28;20485;-73
2022/08/14 01:27:46;;;;;;;9.18;7.40;;;20.70;99.90;;;;;;4995611;28;20093;-74
2022/08/14 01:30:12;;;;;;;9.98;7.97;;;20.80;99.90;;;;;;4995850;28;20043;-74
2022/08/14 01:32:38;;;;;;;9.15;7.18;;;20.80;99.90;;;;;;4994162;28;20050;-73
2022/08/14 01:35:06;;;;;;;12.95;6.72;;;20.70;99.90;;;;;;4995160;28;20047;-74
2022/08/14 01:37:33;;;;;;;8.48;7.57;;;20.70;99.90;;;;;;4995181;28;20046;-74
2022/08/14 01:39:59;;;;;;;13.30;7.70;;;20.70;99.90;;;;;;4994806;28;20420;-74
2022/08/14 01:42:27;;;;;;;9.10;6.60;;;20.60;99.90;;;;;;4995120;28;20102;-74
2022/08/14 01:44:54;;;;;;;7.72;6.90;;;20.70;99.90;;;;;;4994974;28;20148;-73
2022/08/14 01:47:20;;;;;;;10.80;7.60;;;20.50;99.90;;;;;;4995175;28;20057;-74
2022/08/14 01:49:46;;;;;;;8.18;7.32;;;20.50;99.90;;;;;;4994928;28;20042;-73
2022/08/14 01:52:12;;;;;;;9.65;7.25;;;20.40;99.90;;;;;;4994874;28;20047;-74
2022/08/14 01:54:38;;;;;;;11.95;8.60;;;20.50;99.90;;;;;;4993388;28;20085;-74
2022/08/14 01:57:10;;;;;;;10.38;6.95;;;20.40;99.90;;;;;;4994897;28;20050;-74
2022/08/14 01:59:39;;;;;;;10.90;7.53;;;20.40;99.90;;;;;;4994820;28;20498;-74
2022/08/14 02:02:11;;;;;;;8.18;7.28;;;20.40;99.90;;;;;;4994638;28;20105;-74
2022/08/14 02:04:37;;;;;;;10.00;7.93;;;20.40;99.90;;;;;;4977719;28;20050;-74
2022/08/14 02:07:05;;;;;;;8.20;7.25;;;20.40;99.90;;;;;;4994758;28;20064;-74
2022/08/14 02:09:34;;;;;;;12.60;8.65;;;20.40;99.90;;;;;;4994941;28;20054;-74
2022/08/14 02:12:01;;;;;;;10.13;7.82;;;20.30;99.90;;;;;;4994795;28;20049;-74
2022/08/14 02:14:27;;;;;;;11.57;9.43;;;20.30;99.90;;;;;;4994479;28;20050;-73
2022/08/14 02:16:53;;;;;;;9.43;8.15;;;20.30;99.90;;;;;;4994511;28;20129;-73
2022/08/14 02:19:26;;;;;;;9.90;7.70;;;20.30;99.90;;;;;;4994473;28;20548;-74
2022/08/14 02:21:58;;;;;;;10.95;8.55;;;20.30;99.90;;;;;;4993959;28;20058;-74
2022/08/14 02:24:28;;;;;;;9.45;8.45;;;20.30;99.90;;;;;;4994010;28;20501;-74
2022/08/14 02:26:58;;;;;;;10.43;7.93;;;20.20;99.90;;;;;;4994410;28;20062;-74
2022/08/14 02:29:28;;;;;;;9.65;8.35;;;20.20;99.90;;;;;;4994139;28;20097;-74
2022/08/14 02:31:56;;;;;;;9.73;7.63;;;20.20;99.90;;;;;;4976613;28;20046;-74
2022/08/14 02:34:27;;;;;;;10.40;8.90;;;20.20;99.90;;;;;;4994149;28;20478;-73
2022/08/14 02:37:01;;;;;;;10.45;8.35;;;20.20;99.90;;;;;;4993830;28;20050;-74
2022/08/14 02:39:30;;;;;;;7.63;6.80;;;20.10;99.90;;;;;;4993936;28;20054;-74
2022/08/14 02:41:59;;;;;;;8.27;7.32;;;20.10;99.90;;;;;;4993813;28;20451;-74
2022/08/14 02:44:25;;;;;;;11.38;7.60;;;20.10;99.90;;;;;;4994325;28;20161;-74
2022/08/14 02:46:54;;;;;;;9.13;7.88;;;20.00;99.90;;;;;;4993784;28;20490;-74
2022/08/14 02:49:26;;;;;;;8.40;7.40;;;19.90;99.90;;;;;;4993821;28;20046;-73
2022/08/14 02:51:53;;;;;;;10.27;8.05;;;19.90;99.90;;;;;;4993800;28;20062;-74
2022/08/14 02:54:20;;;;;;;9.20;8.18;;;19.90;99.90;;;;;;4993467;28;20057;-74
2022/08/14 02:56:46;;;;;;;9.27;6.82;;;19.90;99.90;;;;;;4994090;28;20054;-74
2022/08/14 02:59:12;;;;;;;9.82;8.07;;;19.90;99.90;;;;;;4993629;28;20490;-73
2022/08/14 03:01:39;;;;;;;11.07;7.57;;;19.90;99.90;;;;;;4993604;28;20409;-74
2022/08/14 03:04:06;;;;;;;11.82;8.10;;;19.90;99.90;;;;;;4993756;28;20377;-74
2022/08/14 03:06:32;;;;;;;11.00;9.60;;;19.80;99.90;;;;;;4993757;28;20129;-74
2022/08/14 03:08:58;;;;;;;9.80;8.80;;;19.80;99.90;;;;;;4992273;28;20078;-74
2022/08/14 03:11:25;;;;;;;14.27;9.70;;;19.80;99.90;;;;;;4993511;28;20057;-74
2022/08/14 03:13:51;;;;;;;10.68;8.80;;;19.70;99.90;;;;;;4992801;28;20050;-73
2022/08/14 03:16:20;;;;;;;10.98;9.88;;;19.70;99.90;;;;;;4992231;28;20058;-75
2022/08/14 03:18:48;;;;;;;10.02;8.35;;;19.70;99.90;;;;;;4993164;28;20057;-74
2022/08/14 03:21:16;;;;;;;10.63;8.13;;;19.70;99.90;;;;;;4993158;28;20058;-73
2022/08/14 03:23:45;;;;;;;8.90;7.97;;;19.70;99.90;;;;;;4993160;28;20046;-73
2022/08/14 03:26:14;;;;;;;10.02;7.78;;;19.70;99.90;;;;;;4993183;28;20072;-74
2022/08/14 03:28:48;;;;;;;14.85;8.80;;;19.60;99.90;;;;;;4993121;28;20148;-73
2022/08/14 03:31:16;;;;;;;8.77;7.68;;;19.60;99.90;;;;;;4976170;28;20439;-74
2022/08/14 03:33:42;;;;;;;8.73;7.10;;;19.50;99.90;;;;;;4993178;28;20047;-73
2022/08/14 03:36:14;;;;;;;9.10;7.10;;;19.50;99.90;;;;;;4976026;28;20494;-73
2022/08/14 03:38:41;;;;;;;8.75;7.15;;;19.50;99.90;;;;;;4993015;28;20050;-73
2022/08/14 03:41:15;;;;;;;7.95;6.60;;;19.50;99.90;;;;;;4993245;28;20050;-73
2022/08/14 03:43:42;;;;;;;9.55;7.82;;;19.40;99.90;;;;;;4993548;28;20126;-73
2022/08/14 03:46:10;;;;;;;9.60;8.23;;;19.40;99.90;;;;;;4976107;28;20117;-73
2022/08/14 03:48:37;;;;;;;11.15;8.18;;;19.40;99.90;;;;;;4993084;28;20047;-73
2022/08/14 03:51:03;;;;;;;12.65;9.27;;;19.30;99.90;;;;;;4992927;28;20056;-73
2022/08/14 03:53:29;;;;;;;8.57;7.78;;;19.20;99.90;;;;;;4992870;28;20051;-72
2022/08/14 03:55:55;;;;;;;10.70;8.10;;;19.20;99.90;;;;;;4992717;28;20129;-73
2022/08/14 03:58:21;;;;;;;10.60;7.68;;;19.30;99.90;;;;;;4992941;28;20081;-74
2022/08/14 04:00:47;;;;;;;9.05;7.93;;;19.30;99.90;;;;;;4975876;28;20054;-74
2022/08/14 04:03:13;;;;;;;10.00;8.95;;;19.30;99.90;;;;;;4993531;28;20526;-73
2022/08/14 04:05:41;;;;;;;12.35;8.63;;;19.30;99.90;;;;;;4993274;28;20047;-72
2022/08/14 04:08:10;;;;;;;9.98;6.50;;;19.30;99.90;;;;;;4993253;28;20057;-74
2022/08/14 04:10:37;;;;;;;10.43;8.07;;;19.30;99.90;;;;;;4975657;28;20054;-74
2022/08/14 04:13:04;;;;;;;9.27;7.60;;;19.30;99.90;;;;;;4992844;28;20470;-74
2022/08/14 04:15:33;;;;;;;9.82;8.10;;;19.30;99.90;;;;;;4992956;28;20364;-73
2022/08/14 04:18:05;;;;;;;10.15;8.52;;;19.30;99.90;;;;;;4992903;28;20045;-73
2022/08/14 04:20:31;;;;;;;11.05;7.85;;;19.20;99.90;;;;;;4992677;28;20058;-73
2022/08/14 04:22:57;;;;;;;10.38;7.72;;;19.20;99.90;;;;;;4992832;28;20054;-73
2022/08/14 04:25:23;;;;;;;11.05;7.65;;;19.10;99.90;;;;;;4993628;28;20105;-74
2022/08/14 04:27:49;;;;;;;11.75;8.20;;;19.10;99.90;;;;;;4979278;28;20046;-74
2022/08/14 04:30:15;;;;;;;10.88;9.23;;;19.00;99.90;;;;;;4996753;28;20585;-74
2022/08/14 04:32:41;;;;;;;11.63;8.02;;;19.00;99.90;;;;;;4996321;28;20051;-73
2022/08/14 04:35:09;;;;;;;12.60;9.32;;;19.00;99.90;;;;;;4996408;28;20200;-74
2022/08/14 04:45:48;;;;;;;8.85;7.97;;;19.00;99.90;;;;;;4996154;28;20487;-73
2022/08/14 04:48:15;;;;;;;12.30;9.65;;;19.10;99.90;;;;;;4979006;28;20054;-73
2022/08/14 04:50:45;;;;;;;9.07;7.88;;;19.10;99.90;;;;;;4996141;28;20434;-73
2022/08/14 04:53:14;;;;;;;9.95;8.70;;;19.10;99.90;;;;;;4995205;28;20193;-73
2022/08/14 04:55:41;;;;;;;11.05;9.40;;;19.20;99.90;;;;;;4996202;28;20046;-73
2022/08/14 04:58:08;;;;;;;11.70;8.98;;;19.20;99.90;;;;;;4978725;28;20556;-73
2022/08/14 05:00:35;;;;;;;12.32;10.07;;;19.20;99.90;;;;;;4996052;28;20054;-73
2022/08/14 05:03:02;;;;;;;12.23;10.20;;;19.30;99.90;;;;;;4995551;28;20629;-73
2022/08/14 05:05:29;;;;;;;12.43;10.00;;;19.40;99.90;;;;;;4978776;28;20121;-73
2022/08/14 05:07:55;;;;;;;13.23;10.32;;;19.40;99.90;;;;;;4996065;28;20050;-73
2022/08/14 05:10:24;;;;;;;11.20;9.98;;;19.50;99.90;;;;;;4996244;28;20056;-74
2022/08/14 05:12:51;;;;;;;19.25;10.95;;;19.50;99.90;;;;;;4995715;28;20547;-73
2022/08/14 05:15:20;;;;;;;11.93;9.15;;;19.50;99.90;;;;;;4978395;28;20054;-73
2022/08/14 05:17:46;;;;;;;16.52;12.48;;;19.50;99.90;;;;;;4996177;28;20050;-73
2022/08/14 05:20:12;;;;;;;16.15;11.25;;;19.50;99.90;;;;;;4995573;28;20042;-73
2022/08/14 05:22:38;;;;;;;12.20;10.55;;;19.50;99.90;;;;;;4978509;28;20057;-74
2022/08/14 05:25:04;;;;;;;13.68;11.02;;;19.60;99.90;;;;;;4995843;28;20479;-74
2022/08/14 05:27:30;;;;;;;11.30;9.68;;;19.60;99.90;;;;;;4995491;28;20053;-73
2022/08/14 05:29:55;;;;;;;13.25;10.52;;;19.60;99.90;;;;;;4995413;28;20038;-73
2022/08/14 05:32:22;;;;;;;12.63;9.73;;;19.70;99.90;;;;;;4995687;28;20054;-74
2022/08/14 05:34:48;;;;;;;13.75;10.50;;;19.80;99.90;;;;;;4995419;28;20125;-74
2022/08/14 05:37:13;;;;;;;11.18;9.95;;;19.80;99.90;;;;;;4995369;28;20069;-73
2022/08/14 05:39:42;;;;;;;12.80;9.88;;;19.90;99.90;;;;;;4978685;28;20543;-74
2022/08/14 05:42:08;;;;;;;13.15;9.60;;;19.90;99.90;;;;;;4978067;28;20046;-74
2022/08/14 05:44:34;;;;;;;12.20;10.43;;;20.00;99.90;;;;;;4995208;28;20053;-73
2022/08/14 05:47:00;;;;;;;11.98;10.02;;;20.00;99.90;;;;;;4995201;28;20046;-74
2022/08/14 05:49:27;;;;;;;15.77;11.18;;;20.00;99.90;;;;;;4995323;28;20600;-74
2022/08/14 05:51:53;;;;;;;11.25;9.95;;;20.10;99.90;;;;;;4995305;28;20062;-73
2022/08/14 05:54:18;;;;;;;11.73;9.23;;;20.20;99.90;;;;;;4994874;28;20051;-74
2022/08/14 05:56:45;;;;;;;13.70;10.75;;;20.20;99.90;;;;;;4994916;28;20380;-74
2022/08/14 05:59:11;;;;;;;13.20;10.13;;;20.40;99.90;;;;;;4994939;28;20046;-73
2022/08/14 06:01:36;;;;;;;13.80;10.68;;;20.50;99.90;;;;;;4995197;28;20054;-73
2022/08/14 06:04:02;;;;;;;13.10;10.77;;;20.60;99.90;;;;;;4994686;28;20053;-73
2022/08/14 06:06:28;;;;;;;14.23;10.60;;;20.80;99.90;;;;;;4994785;28;20050;-74
2022/08/14 06:08:54;;;;;;;14.30;11.18;;;20.90;99.90;;;;;;4994817;28;20050;-74
2022/08/14 06:11:19;;;;;;;13.63;10.80;;;21.00;99.90;;;;;;4994893;28;20042;-74
2022/08/14 06:13:45;;;;;;;15.05;10.27;;;21.10;99.90;;;;;;4994403;28;20097;-74
2022/08/14 06:16:13;;;;;;;12.40;10.13;;;21.20;99.90;;;;;;4977061;28;20074;-74
2022/08/14 06:18:39;;;;;;;13.02;10.45;;;21.30;99.90;;;;;;4994456;28;20046;-74
2022/08/14 06:21:05;;;;;;;13.15;10.27;;;21.50;99.90;;;;;;4994563;28;20108;-74
2022/08/14 06:23:31;;;;;;;16.10;11.70;;;21.60;99.90;;;;;;4994211;28;20124;-74
2022/08/14 06:25:57;;;;;;;14.13;11.43;;;21.70;99.90;;;;;;4994278;28;20129;-73
2022/08/14 06:28:27;;;;;;;14.27;11.32;;;21.80;99.90;;;;;;4993946;28;20133;-74
2022/08/14 06:30:53;;;;;;;12.43;11.13;;;22.00;99.90;;;;;;4994665;28;20133;-74
2022/08/14 06:33:21;;;;;;;15.80;11.18;;;22.10;99.90;;;;;;4994216;28;20479;-74
2022/08/14 06:35:48;;;;;;;13.90;12.02;;;22.20;99.90;;;;;;4994594;28;20042;-73
2022/08/14 06:38:19;;;;;;;11.38;10.18;;;22.30;99.90;;;;;;4994129;28;20046;-74
2022/08/14 06:40:46;;;;;;;16.75;11.13;;;22.40;99.90;;;;;;4993705;28;20457;-74
2022/08/14 06:43:13;;;;;;;12.02;9.52;;;22.50;99.90;;;;;;4994162;28;20491;-74
2022/08/14 06:45:41;;;;;;;13.60;10.00;;;22.70;99.90;;;;;;4976857;28;20062;-74
2022/08/14 06:48:15;;;;;;;14.15;10.50;;;22.70;99.90;;;;;;4993945;28;20547;-74
2022/08/14 06:50:42;;;;;;;16.10;9.75;;;22.90;99.90;;;;;;4993413;28;20042;-75
2022/08/14 06:53:08;;;;;;;12.23;9.45;;;23.10;99.90;;;;;;4976849;28;20073;-74
2022/08/14 06:55:34;;;;;;;13.98;10.00;;;23.30;99.90;;;;;;4993455;28;20050;-74
2022/08/14 06:58:00;;;;;;;12.02;9.70;;;23.60;99.90;;;;;;4993448;28;20130;-74
2022/08/14 07:00:27;;;;;;;10.95;9.77;;;24.10;99.90;;;;;;4992479;28;20081;-75
2022/08/14 07:05:48;;;;;;;11.75;9.40;;;26.80;99.20;;;;;;4993443;28;20050;-74
2022/08/14 07:08:25;;;;;;;12.43;9.40;;;28.20;96.80;;;;;;4993872;28;20050;-74
2022/08/14 07:10:53;;;;;;;10.80;8.88;;;29.30;93.70;;;;;;4993526;28;20046;-74
2022/08/14 07:13:19;;;;;;;10.05;9.02;;;30.00;92.90;;;;;;4976445;28;20065;-74
2022/08/14 07:15:49;;;;;;;9.35;8.40;;;30.70;91.70;;;;;;4993231;28;20053;-75
2022/08/14 07:18:19;;;;;;;9.68;8.70;;;31.10;90.80;;;;;;4993459;28;20448;-75
2022/08/14 07:20:44;;;;;;;9.63;8.73;;;31.60;89.40;;;;;;4993102;28;20054;-74
2022/08/14 07:23:11;;;;;;;10.85;8.38;;;31.90;88.40;;;;;;4976617;28;20062;-73
2022/08/14 07:25:38;;;;;;;12.18;9.23;;;32.20;87.30;;;;;;4993323;28;20054;-72
2022/08/14 07:28:12;;;;;;;10.82;8.43;;;32.40;85.80;;;;;;4993402;28;20049;-73
2022/08/14 07:30:38;;;;;;;9.57;8.65;;;32.30;82.50;;;;;;4993507;28;20491;-74
2022/08/14 07:33:05;;;;;;;9.02;7.80;;;32.40;82.10;;;;;;4993160;28;20054;-75
2022/08/14 07:35:32;;;;;;;9.27;7.90;;;32.70;81.60;;;;;;4975952;28;20054;-74
2022/08/14 07:37:58;;;;;;;9.45;7.53;;;32.70;80.50;;;;;;4975781;28;20053;-74
2022/08/14 07:40:24;;;;;;;14.23;7.72;;;33.10;80.50;;;;;;4975491;28;20054;-76
2022/08/14 07:42:49;;;;;;;8.90;8.00;;;33.30;80.00;;;;;;4993040;28;20496;-75
2022/08/14 07:45:15;;;;;;;9.40;7.07;;;33.40;79.10;;;;;;4976304;28;20046;-75
2022/08/14 07:47:42;;;;;;;8.60;7.28;;;33.80;78.90;;;;;;4993032;28;20062;-75
2022/08/14 07:50:14;;;;;;;8.68;7.65;;;34.10;78.00;;;;;;4993005;28;20530;-75
2022/08/14 07:52:44;;;;;;;8.55;7.75;;;34.50;76.70;;;;;;4992615;28;20539;-75
2022/08/14 07:55:13;;;;;;;7.47;6.78;;;34.60;76.80;;;;;;4975689;28;20053;-74
2022/08/14 07:57:40;;;;;;;7.90;7.20;;;34.70;75.90;;;;;;4975964;28;20050;-75
2022/08/14 08:00:10;;;;;;;7.75;7.00;;;34.80;75.70;;;;;;4993204;28;20122;-75
2022/08/14 08:02:42;;;;;;;7.18;6.47;;;34.80;75.10;;;;;;4997194;28;20130;-75
2022/08/14 08:05:10;;;;;;;7.07;6.38;;;35.10;74.70;;;;;;4996912;28;20085;-74
2022/08/14 08:07:37;;;;;;;7.85;6.38;;;35.30;74.30;;;;;;4997110;28;20493;-74
2022/08/14 08:10:31;;;;;;;7.00;6.30;;;35.30;72.70;;;;;;4996850;28;20050;-74
2022/08/14 08:12:57;;;;;;;7.47;6.18;;;35.30;71.90;;;;;;4997242;28;20068;-74
2022/08/14 08:15:28;;;;;;;6.78;6.13;;;35.20;72.40;;;;;;4979244;28;20410;-75
2022/08/14 08:17:55;;;;;;;6.60;5.95;;;35.30;71.60;;;;;;4997061;28;20063;-75
2022/08/14 08:20:25;;;;;;;6.85;5.95;;;35.40;71.30;;;;;;4996391;28;20077;-74
2022/08/14 08:22:52;;;;;;;6.90;5.95;;;35.60;70.60;;;;;;4996561;28;20050;-74
2022/08/14 08:25:18;;;;;;;6.80;5.80;;;35.90;70.30;;;;;;4996832;28;20062;-74
2022/08/14 08:28:00;;;;;;;6.15;5.55;;;35.80;69.70;;;;;;4996554;28;20463;-74
2022/08/14 08:30:28;;;;;;;5.80;5.20;;;35.70;68.60;;;;;;4978788;28;20093;-74
2022/08/14 08:32:55;;;;;;;6.45;5.85;;;36.00;69.20;;;;;;4995889;28;20512;-74
2022/08/14 08:35:27;;;;;;;6.97;6.05;;;36.20;68.90;;;;;;4996096;28;20109;-74
2022/08/14 08:37:59;;;;;;;6.03;5.38;;;36.30;68.20;;;;;;4996351;28;20080;-74
2022/08/14 08:40:26;;;;;;;;;;;36.10;68.30;;;;;;4996820;28;20042;-71
2022/08/14 08:42:52;;;;;;;5.82;5.32;;;36.10;67.20;;;;;;4995858;28;19921;-71
2022/08/14 08:45:20;;;;;;;6.45;5.85;;;36.20;68.30;;;;;;4994366;28;20097;-71
2022/08/14 08:47:46;;;;;;;6.25;5.75;;;36.30;67.30;;;;;;4995281;28;20508;-71
2022/08/14 08:50:29;;;;;;;6.80;6.10;;;36.30;67.20;;;;;;4996167;28;20054;-70
2022/08/14 08:52:57;;;;;;;6.82;5.55;;;36.20;66.80;;;;;;4978805;28;20042;-71
2022/08/14 08:55:38;;;;;;;5.70;5.20;;;36.20;66.70;;;;;;4995497;28;20501;-70
2022/08/14 08:58:09;;;;;;;5.68;5.28;;;36.00;65.50;;;;;;4978583;28;20116;-71
2022/08/14 09:00:37;;;;;;;6.57;5.35;;;36.20;66.30;;;;;;4995798;28;20042;-72
2022/08/14 09:03:16;;;;;;;5.80;5.22;;;36.30;66.20;;;;;;4995685;28;20038;-71
2022/08/14 09:06:01;;;;;;;7.60;5.78;;;36.20;65.30;;;;;;4979231;28;20100;-71
2022/08/14 09:08:29;;;;;;;5.70;5.10;;;36.50;65.10;;;;;;4995523;28;20130;-71
2022/08/14 09:10:57;;;;;;;6.38;5.78;;;36.20;65.30;;;;;;4977715;28;20047;-71
2022/08/14 09:13:25;;;;;;;6.53;5.78;;;36.00;65.10;;;;;;4994267;28;20125;-72
2022/08/14 09:15:52;;;;;;;5.97;5.47;;;36.00;65.20;;;;;;4994826;28;20046;-70
2022/08/14 09:18:23;;;;;;;5.90;5.40;;;35.80;64.80;;;;;;4995367;28;20046;-70
2022/08/14 09:20:55;;;;;;;5.07;4.57;;;36.00;65.00;;;;;;4994814;28;20061;-70
2022/08/14 09:23:22;;;;;;;6.95;5.28;;;36.00;64.40;;;;;;4995366;28;20073;-71
2022/08/14 09:25:50;;;;;;;5.72;5.10;;;36.20;64.90;;;;;;4978144;28;20379;-70
2022/08/14 09:28:18;;;;;;;6.00;5.50;;;36.30;64.70;;;;;;4995024;28;20452;-70
2022/08/14 09:30:55;;;;;;;6.75;6.15;;;36.10;64.70;;;;;;4995043;28;20565;-72
2022/08/14 09:33:58;;;;;;;6.22;5.72;;;36.00;64.80;;;;;;4995369;28;20125;-72
2022/08/14 09:36:39;;;;;;;6.43;5.82;;;35.70;64.20;;;;;;4994881;28;20112;-72
2022/08/14 09:39:39;;;;;;;6.43;5.82;;;35.80;65.60;;;;;;4995027;28;20461;-71
2022/08/14 09:42:29;;;;;;;6.47;5.97;;;35.60;64.80;;;;;;4994789;28;20049;-71
2022/08/14 09:45:47;;;;;;;6.03;5.60;;;35.80;65.60;;;;;;4994812;28;20047;-71
2022/08/14 09:48:18;;;;;;;5.82;5.32;;;35.50;64.40;;;;;;4937662;28;20078;-71
2022/08/14 09:50:52;;;;;;;7.55;5.60;;;35.30;65.10;;;;;;4977240;28;20169;-71
2022/08/14 09:53:42;;;;;;;4.65;4.25;;;35.30;64.90;;;;;;4994929;28;20042;-71
2022/08/14 09:56:09;;;;;;;5.10;4.68;;;35.90;64.10;;;;;;4977552;28;20046;-71
2022/08/14 09:58:44;;;;;;;4.47;4.10;;;36.00;64.00;;;;;;4960959;28;20054;-71
2022/08/14 10:01:11;;;;;;;4.78;4.38;;;36.30;62.90;;;;;;4977466;28;20250;-71
2022/08/14 10:03:47;;;;;;;4.97;4.47;;;36.40;63.50;;;;;;4977265;28;20054;-71
2022/08/14 10:06:18;;;;;;;5.40;4.82;;;36.20;62.90;;;;;;4994425;28;20042;-71
2022/08/14 10:08:44;;;;;;;;;;;36.10;62.90;;;;;;4995285;28;20082;-71
2022/08/14 10:11:18;;;;;;;4.75;4.30;;;36.10;62.50;;;;;;4994250;28;20338;-71
2022/08/14 10:13:45;;;;;;;5.10;4.70;;;36.30;63.30;;;;;;4994324;28;20099;-70
2022/08/14 10:16:13;;;;;;;4.97;4.47;;;36.00;62.90;;;;;;4994683;28;20078;-71
2022/08/14 10:18:38;;;;;;;4.93;4.45;;;35.90;62.90;;;;;;4977341;28;20458;-70
2022/08/14 10:21:08;;;;;;;6.25;4.60;;;36.00;62.80;;;;;;4992664;28;20059;-71
2022/08/14 10:23:48;;;;;;;7.18;4.35;;;36.10;63.00;;;;;;4993801;28;20153;-71
2022/08/14 10:26:17;;;;;;;5.60;4.22;;;36.30;62.70;;;;;;4993499;28;20046;-71
2022/08/14 10:28:49;;;;;;;4.35;3.95;;;36.50;62.50;;;;;;4994075;28;20050;-70
2022/08/14 10:31:17;;;;;;;;;;;36.60;62.10;;;;;;4994179;28;20046;-71
2022/08/14 10:33:45;;;;;;;4.40;3.78;;;36.40;61.50;;;;;;4994017;28;19922;-70
2022/08/14 10:36:10;;;;;;;3.65;3.35;;;36.60;62.00;;;;;;4976440;28;20050;-71
2022/08/14 10:38:36;;;;;;;5.03;4.63;;;36.70;61.40;;;;;;4993908;28;20054;-71
2022/08/14 10:41:11;;;;;;;4.45;4.15;;;36.60;61.50;;;;;;4993591;28;20045;-70
2022/08/14 10:43:39;;;;;;;4.53;4.20;;;36.60;61.60;;;;;;4993743;28;20058;-70
2022/08/14 10:46:15;;;;;;;4.47;4.07;;;37.00;61.80;;;;;;4993685;28;20057;-70
2022/08/14 10:48:54;;;;;;;4.50;4.13;;;37.20;60.80;;;;;;4976112;28;20050;-70
2022/08/14 10:51:27;;;;;;;6.72;4.97;;;37.00;61.10;;;;;;4976921;28;20105;-70
2022/08/14 10:53:54;;;;;;;4.28;3.97;;;36.90;60.80;;;;;;4993229;28;20456;-71
2022/08/14 10:56:31;;;;;;;4.57;4.28;;;36.60;61.00;;;;;;4993412;28;20488;-71
2022/08/14 10:59:05;;;;;;;8.35;4.65;;;36.30;61.10;;;;;;4992331;28;20105;-70
2022/08/14 11:01:33;;;;;;;5.70;5.20;;;35.80;61.60;;;;;;4994275;28;20050;-69
2022/08/14 11:04:00;;;;;;;5.35;4.85;;;35.30;61.30;;;;;;4993649;28;20081;-70
2022/08/14 11:06:27;;;;;;;4.97;4.55;;;34.60;61.70;;;;;;4993658;28;20136;-71
2022/08/14 11:08:54;;;;;;;5.90;5.40;;;34.20;62.20;;;;;;4993659;28;20050;-71
2022/08/14 11:11:26;;;;;;;5.70;5.18;;;33.70;62.10;;;;;;4993332;28;20050;-71
2022/08/14 11:13:56;;;;;;;5.63;5.22;;;33.30;62.50;;;;;;4993202;28;20069;-71
2022/08/14 11:16:23;;;;;;;5.68;5.20;;;33.20;62.90;;;;;;4993449;28;20133;-70
2022/08/14 11:18:50;;;;;;;9.98;5.85;;;33.00;63.20;;;;;;4991985;28;20050;-71
2022/08/14 11:21:21;;;;;;;5.85;5.13;;;33.00;63.30;;;;;;4992999;28;20058;-72
2022/08/14 11:23:48;;;;;;;5.78;4.90;;;33.00;63.40;;;;;;4991928;28;20050;-71
2022/08/14 11:26:19;;;;;;;6.60;5.97;;;33.00;63.10;;;;;;4975745;28;20058;-72
2022/08/14 11:28:48;;;;;;;6.00;5.03;;;33.10;63.50;;;;;;4993177;28;20109;-72
2022/08/14 11:31:18;;;;;;;5.38;4.88;;;33.00;63.70;;;;;;4993032;28;20082;-70
2022/08/14 11:33:47;;;;;;;7.82;5.68;;;32.90;63.20;;;;;;4993262;28;20054;-70
2022/08/14 11:36:13;;;;;;;5.90;5.22;;;32.90;63.50;;;;;;4992932;28;20042;-70
2022/08/14 11:38:44;;;;;;;6.30;5.80;;;33.00;63.10;;;;;;4975942;28;20061;-70
2022/08/14 11:41:15;;;;;;;5.47;4.97;;;33.00;63.30;;;;;;4975867;28;20046;-71
2022/08/14 11:43:45;;;;;;;6.43;5.60;;;32.90;62.80;;;;;;4992933;28;20046;-70
2022/08/14 11:46:12;;;;;;;5.93;5.32;;;32.90;63.70;;;;;;4993040;28;20159;-71
2022/08/14 11:48:50;;;;;;;5.88;5.22;;;32.90;63.00;;;;;;4992955;28;20133;-70
2022/08/14 11:51:22;;;;;;;6.80;5.47;;;33.10;63.40;;;;;;4976118;28;20459;-70
2022/08/14 11:53:56;;;;;;;6.55;5.20;;;33.10;62.70;;;;;;4993486;28;20101;-70
2022/08/14 11:56:23;;;;;;;6.95;5.88;;;32.90;62.70;;;;;;4975156;28;20049;-71
2022/08/14 11:58:51;;;;;;;6.20;5.65;;;32.90;63.00;;;;;;4992622;28;20085;-71
2022/08/14 12:01:27;;;;;;;6.80;5.47;;;32.80;63.10;;;;;;4992965;28;20088;-71
2022/08/14 12:03:57;;;;;;;6.22;5.63;;;32.80;63.00;;;;;;4993015;28;20050;-72
2022/08/14 12:06:26;;;;;;;6.38;5.63;;;32.70;62.80;;;;;;4992275;28;20078;-71
2022/08/14 12:08:54;;;;;;;5.97;5.45;;;32.80;62.80;;;;;;4992647;28;20053;-72
2022/08/14 12:11:20;;;;;;;7.00;6.30;;;32.90;62.70;;;;;;4992425;28;20419;-71
2022/08/14 12:13:46;;;;;;;5.40;4.90;;;32.90;62.60;;;;;;4993124;28;20130;-72
2022/08/14 12:16:15;;;;;;;6.45;5.43;;;32.90;62.60;;;;;;4992800;28;20046;-71
2022/08/14 12:18:47;;;;;;;8.25;5.65;;;32.90;62.80;;;;;;4992236;28;20432;-76
2022/08/14 12:21:23;;;;;;;6.53;4.90;;;32.90;62.90;;;;;;4992352;28;20069;-76
2022/08/14 12:24:10;;;;;;;5.65;5.00;;;32.90;62.90;;;;;;4992746;28;20100;-73
2022/08/14 12:26:36;;;;;;;5.53;4.97;;;33.10;63.00;;;;;;4992733;28;20050;-75
2022/08/14 12:29:08;;;;;;;6.35;5.65;;;33.20;62.90;;;;;;4992289;28;20474;-74
2022/08/14 12:31:35;;;;;;;5.87;5.33;;;33.40;63.20;;;;;;4992780;28;20122;-74
2022/08/14 12:34:03;;;;;;;6.13;5.28;;;33.40;62.70;;;;;;4975608;28;20049;-74
2022/08/14 12:36:31;;;;;;;9.15;5.13;;;33.40;62.30;;;;;;4991875;28;20046;-75
2022/08/14 12:39:18;;;;;;;5.70;5.15;;;33.00;62.40;;;;;;4992434;28;20083;-76
2022/08/14 12:41:55;;;;;;;6.30;5.70;;;32.80;62.50;;;;;;4991484;28;20062;-75
2022/08/14 12:44:36;;;;;;;7.00;5.45;;;32.90;63.40;;;;;;4993070;28;20056;-75
2022/08/14 12:47:15;;;;;;;5.82;4.93;;;33.20;63.10;;;;;;4992950;28;20043;-74
2022/08/14 12:49:53;;;;;;;6.90;5.22;;;33.20;62.10;;;;;;4996088;28;20050;-73
2022/08/14 12:52:42;;;;;;;8.00;5.18;;;33.00;62.60;;;;;;4996256;28;20082;-74
2022/08/14 12:55:13;;;;;;;8.35;5.43;;;32.90;62.90;;;;;;4994752;28;20047;-75
2022/08/14 12:57:42;;;;;;;6.47;5.00;;;32.90;62.80;;;;;;4995843;28;20069;-74
2022/08/14 13:00:27;;;;;;;5.28;4.78;;;32.90;63.10;;;;;;4995711;28;20081;-76
2022/08/14 13:02:54;;;;;;;6.47;5.88;;;32.90;62.40;;;;;;4995745;28;20052;-74
2022/08/14 13:05:22;;;;;;;5.00;4.50;;;32.90;62.90;;;;;;4996013;28;20125;-77
2022/08/14 13:07:50;;;;;;;7.18;6.18;;;32.70;62.50;;;;;;4995825;28;20065;-75